createdAt,value
2018-09-22T00:02:05.150Z,17.17
2018-09-22T00:04:34.804Z,17.10
2018-09-22T00:07:04.647Z,16.95
2018-09-22T00:09:34.472Z,16.88
2018-09-22T00:12:04.478Z,16.94
2018-09-22T00:14:34.210Z,16.94
2018-09-22T00:17:04.357Z,16.95
2018-09-22T00:19:34.208Z,16.91
2018-09-22T00:22:04.010Z,16.89
2018-09-22T00:24:33.664Z,16.88
2018-09-22T00:27:03.355Z,16.89
2018-09-22T00:29:33.138Z,16.87
2018-09-22T00:32:02.889Z,16.84
2018-09-22T00:34:32.503Z,16.81
2018-09-22T00:37:02.204Z,16.73
2018-09-22T00:39:31.874Z,16.67
2018-09-22T00:42:02.448Z,16.59
2018-09-22T00:44:32.169Z,16.60
2018-09-22T00:47:01.704Z,16.52
2018-09-22T00:49:31.199Z,16.60
2018-09-22T00:52:00.883Z,16.56
2018-09-22T00:54:30.504Z,16.46
2018-09-22T00:57:00.106Z,16.43
2018-09-22T00:59:29.690Z,16.40
2018-09-22T01:01:59.178Z,16.37
2018-09-22T01:04:28.820Z,16.37
2018-09-22T01:06:58.440Z,16.34
2018-09-22T01:09:28.210Z,16.34
2018-09-22T01:11:57.774Z,16.23
2018-09-22T01:14:27.506Z,16.15
2018-09-22T01:16:57.165Z,16.15
2018-09-22T01:19:26.826Z,16.11
2018-09-22T01:21:56.492Z,16.17
2018-09-22T01:24:26.103Z,16.24
2018-09-22T01:26:55.820Z,16.20
2018-09-22T01:29:25.396Z,16.15
2018-09-22T01:31:55.016Z,16.23
2018-09-22T01:34:24.624Z,16.22
2018-09-22T01:36:54.242Z,16.19
2018-09-22T01:39:23.812Z,16.18
2018-09-22T01:41:53.443Z,16.22
2018-09-22T01:44:23.079Z,16.28
2018-09-22T01:46:52.600Z,16.24
2018-09-22T01:49:22.132Z,16.11
2018-09-22T01:51:51.720Z,16.05
2018-09-22T01:54:21.396Z,16.05
2018-09-22T01:56:51.003Z,16.01
2018-09-22T01:59:20.658Z,16.03
2018-09-22T02:01:50.174Z,16.09
2018-09-22T02:04:19.725Z,16.06
2018-09-22T02:06:49.382Z,16.03
2018-09-22T02:09:18.888Z,16.02
2018-09-22T02:11:48.484Z,16.06
2018-09-22T02:14:18.179Z,16.05
2018-09-22T02:16:47.742Z,15.94
2018-09-22T02:19:17.402Z,15.92
2018-09-22T02:21:47.169Z,15.96
2018-09-22T02:24:16.725Z,15.91
2018-09-22T02:26:46.285Z,15.80
2018-09-22T02:29:15.888Z,15.82
2018-09-22T02:31:45.454Z,15.84
2018-09-22T02:34:15.277Z,15.70
2018-09-22T02:36:44.888Z,15.61
2018-09-22T02:39:14.322Z,15.57
2018-09-22T02:41:44.061Z,15.45
2018-09-22T02:44:13.797Z,15.40
2018-09-22T02:51:35.861Z,15.21
2018-09-22T02:54:05.476Z,15.16
2018-09-22T02:56:35.149Z,15.18
2018-09-22T02:59:04.872Z,15.12
2018-09-22T03:01:34.544Z,15.15
2018-09-22T03:04:04.290Z,15.08
2018-09-22T03:06:34.036Z,15.12
2018-09-22T03:09:03.861Z,15.12
2018-09-22T03:11:33.565Z,15.06
2018-09-22T03:14:03.226Z,15.14
2018-09-22T03:16:32.849Z,15.08
2018-09-22T03:19:02.606Z,15.16
2018-09-22T03:21:32.074Z,15.21
2018-09-22T03:24:02.853Z,15.21
2018-09-22T03:26:32.464Z,15.12
2018-09-22T03:29:02.095Z,15.06
2018-09-22T03:31:31.673Z,15.03
2018-09-22T03:34:01.266Z,14.97
2018-09-22T03:36:30.912Z,14.77
2018-09-22T03:39:00.502Z,14.78
2018-09-22T03:41:30.249Z,14.69
2018-09-22T03:43:59.805Z,14.75
2018-09-22T03:46:29.460Z,14.65
2018-09-22T03:48:59.229Z,14.60
2018-09-22T03:51:28.821Z,14.65
2018-09-22T03:53:58.354Z,14.63
2018-09-22T03:56:28.025Z,14.49
2018-09-22T03:58:57.686Z,14.43
2018-09-22T04:01:27.266Z,14.48
2018-09-22T04:03:57.027Z,14.45
2018-09-22T04:06:26.692Z,14.48
2018-09-22T04:08:56.374Z,14.56
2018-09-22T04:11:26.195Z,14.68
2018-09-22T04:13:55.811Z,14.66
2018-09-22T04:16:25.309Z,14.66
2018-09-22T04:18:54.906Z,14.63
2018-09-22T04:21:24.636Z,14.56
2018-09-22T04:23:54.276Z,14.76
2018-09-22T04:26:23.924Z,14.67
2018-09-22T04:28:53.670Z,14.78
2018-09-22T04:31:23.320Z,14.79
2018-09-22T04:33:53.314Z,14.72
2018-09-22T04:36:22.983Z,14.71
2018-09-22T04:38:52.589Z,14.87
2018-09-22T04:41:22.299Z,15.03
2018-09-22T04:43:51.931Z,15.02
2018-09-22T04:46:21.656Z,14.61
2018-09-22T04:48:51.273Z,15.41
2018-09-22T04:51:21.285Z,15.87
2018-09-22T04:53:50.858Z,16.37
2018-09-22T04:56:20.376Z,16.82
2018-09-22T04:58:50.040Z,17.09
2018-09-22T05:01:19.679Z,17.59
2018-09-22T05:03:49.444Z,17.98
2018-09-22T05:06:18.980Z,18.63
2018-09-22T05:08:48.671Z,19.10
2018-09-22T05:11:18.318Z,19.39
2018-09-22T05:13:47.848Z,19.66
2018-09-22T05:16:17.562Z,20.05
2018-09-22T05:18:47.326Z,20.50
2018-09-22T05:21:16.896Z,20.64
2018-09-22T05:23:46.501Z,20.62
2018-09-22T05:26:16.129Z,20.95
2018-09-22T05:28:45.795Z,21.18
2018-09-22T05:31:15.438Z,21.33
2018-09-22T05:33:45.046Z,21.86
2018-09-22T05:36:14.762Z,22.11
2018-09-22T05:38:44.341Z,22.37
2018-09-22T05:41:14.080Z,22.94
2018-09-22T05:43:43.800Z,23.13
2018-09-22T05:46:14.144Z,23.22
2018-09-22T05:48:43.689Z,23.29
2018-09-22T05:51:13.316Z,23.59
2018-09-22T05:53:43.052Z,23.29
2018-09-22T05:56:12.639Z,23.69
2018-09-22T05:58:42.375Z,23.97
2018-09-22T06:01:11.989Z,24.15
2018-09-22T06:03:42.580Z,24.05
2018-09-22T06:06:12.296Z,24.20
2018-09-22T06:08:41.963Z,24.71
2018-09-22T06:11:11.558Z,24.96
2018-09-22T06:13:41.257Z,25.48
2018-09-22T06:16:11.044Z,25.09
2018-09-22T06:18:40.705Z,25.47
2018-09-22T06:21:10.370Z,25.70
2018-09-22T06:23:39.939Z,25.78
2018-09-22T06:26:09.468Z,26.32
2018-09-22T06:28:39.060Z,26.55
2018-09-22T06:31:08.567Z,26.42
2018-09-22T06:33:38.120Z,26.65
2018-09-22T06:36:07.977Z,26.37
2018-09-22T06:38:37.619Z,26.83
2018-09-22T06:41:07.335Z,27.31
2018-09-22T06:43:36.912Z,26.97
2018-09-22T06:46:06.523Z,27.73
2018-09-22T06:48:36.218Z,27.75
2018-09-22T06:51:06.079Z,26.85
2018-09-22T06:53:35.942Z,27.38
2018-09-22T06:56:05.688Z,27.92
2018-09-22T06:58:35.608Z,27.99
2018-09-22T07:01:05.148Z,28.15
2018-09-22T07:03:34.781Z,27.63
2018-09-22T07:06:04.445Z,27.71
2018-09-22T07:08:33.960Z,27.73
2018-09-22T07:11:03.574Z,28.54
2018-09-22T07:13:33.437Z,28.17
2018-09-22T07:16:03.021Z,28.05
2018-09-22T07:18:32.764Z,28.17
2018-09-22T07:21:09.423Z,28.06
2018-09-22T07:23:39.131Z,28.66
2018-09-22T07:26:08.691Z,28.88
2018-09-22T07:28:38.319Z,29.47
2018-09-22T07:31:08.078Z,29.48
2018-09-22T07:33:37.574Z,29.73
2018-09-22T07:36:07.134Z,29.66
2018-09-22T07:38:36.762Z,29.44
2018-09-22T07:41:06.219Z,30.38
2018-09-22T07:43:35.527Z,30.49
2018-09-22T07:46:04.899Z,29.95
2018-09-22T07:48:34.292Z,30.26
2018-09-22T07:51:03.651Z,30.11
2018-09-22T07:53:32.967Z,29.96
2018-09-22T07:56:02.503Z,29.96
2018-09-22T07:58:31.924Z,31.10
2018-09-22T08:01:01.425Z,29.82
2018-09-22T08:03:31.226Z,30.27
2018-09-22T08:06:00.600Z,30.54
2018-09-22T08:08:29.922Z,30.61
2018-09-22T08:10:59.304Z,30.37
2018-09-22T08:13:29.140Z,30.70
2018-09-22T08:15:58.619Z,30.54
2018-09-22T08:18:27.979Z,30.72
2018-09-22T08:20:57.436Z,30.63
2018-09-22T08:23:27.172Z,31.06
2018-09-22T08:25:56.685Z,31.59
2018-09-22T08:28:26.375Z,31.36
2018-09-22T08:30:55.978Z,31.51
2018-09-22T08:33:25.771Z,31.63
2018-09-22T08:35:55.500Z,32.94
2018-09-22T08:38:24.971Z,32.28
2018-09-22T08:40:54.696Z,31.98
2018-09-22T08:43:24.268Z,31.89
2018-09-22T08:45:53.990Z,32.11
2018-09-22T08:48:23.620Z,32.95
2018-09-22T08:50:53.316Z,32.72
2018-09-22T08:53:22.964Z,32.32
2018-09-22T08:55:52.386Z,32.07
2018-09-22T08:58:21.922Z,32.35
2018-09-22T09:00:51.314Z,33.27
2018-09-22T09:03:20.835Z,33.19
2018-09-22T09:05:50.299Z,32.35
2018-09-22T09:08:19.998Z,32.40
2018-09-22T09:10:49.757Z,32.26
2018-09-22T09:13:19.309Z,32.43
2018-09-22T09:15:49.011Z,32.84
2018-09-22T09:18:18.650Z,32.79
2018-09-22T09:20:48.193Z,31.96
2018-09-22T09:23:19.455Z,32.72
2018-09-22T09:25:49.171Z,33.37
2018-09-22T09:28:18.884Z,33.58
2018-09-22T09:30:48.489Z,33.51
2018-09-22T09:33:18.253Z,33.55
2018-09-22T09:35:47.934Z,34.82
2018-09-22T09:38:17.600Z,33.58
2018-09-22T09:40:47.250Z,33.64
2018-09-22T09:43:17.009Z,34.41
2018-09-22T09:45:46.615Z,34.66
2018-09-22T09:48:16.213Z,34.58
2018-09-22T09:50:45.828Z,34.62
2018-09-22T09:53:15.644Z,34.56
2018-09-22T09:55:45.219Z,35.07
2018-09-22T09:58:14.926Z,34.14
2018-09-22T10:00:45.734Z,33.85
2018-09-22T10:03:17.000Z,33.71
2018-09-22T10:05:46.791Z,33.56
2018-09-22T10:08:16.874Z,32.73
2018-09-22T10:10:47.121Z,33.43
2018-09-22T10:13:16.667Z,34.00
2018-09-22T10:15:46.268Z,34.79
2018-09-22T10:18:15.643Z,34.62
2018-09-22T10:20:45.027Z,33.95
2018-09-22T10:23:14.396Z,34.20
2018-09-22T10:25:43.826Z,33.31
2018-09-22T10:28:14.173Z,32.92
2018-09-22T10:30:43.834Z,34.60
2018-09-22T10:33:13.096Z,35.48
2018-09-22T10:35:42.450Z,35.47
2018-09-22T10:38:12.173Z,35.96
2018-09-22T10:40:41.782Z,34.65
2018-09-22T10:43:11.204Z,34.55
2018-09-22T10:45:41.302Z,35.69
2018-09-22T10:48:10.871Z,35.05
2018-09-22T10:50:40.220Z,34.49
2018-09-22T10:53:09.885Z,34.70
2018-09-22T10:55:39.503Z,34.69
2018-09-22T10:58:09.125Z,34.47
2018-09-22T11:00:38.693Z,34.77
2018-09-22T11:03:08.372Z,34.28
2018-09-22T11:05:38.044Z,35.34
2018-09-22T11:08:08.463Z,36.17
2018-09-22T11:10:38.060Z,35.36
2018-09-22T11:13:07.461Z,34.48
2018-09-22T11:15:37.177Z,34.09
2018-09-22T11:18:07.008Z,33.97
2018-09-22T11:20:36.639Z,35.18
2018-09-22T11:23:06.248Z,35.33
2018-09-22T11:25:35.646Z,34.08
2018-09-22T11:28:05.294Z,34.60
2018-09-22T11:30:34.850Z,34.10
2018-09-22T11:33:04.657Z,34.44
2018-09-22T11:35:34.359Z,35.14
2018-09-22T11:38:04.149Z,36.06
2018-09-22T11:40:33.538Z,36.01
2018-09-22T11:43:03.225Z,36.10
2018-09-22T11:45:32.811Z,36.61
2018-09-22T11:48:02.263Z,35.19
2018-09-22T11:50:31.846Z,36.29
2018-09-22T11:53:01.219Z,36.14
2018-09-22T11:55:30.973Z,35.00
2018-09-22T11:58:00.279Z,34.07
2018-09-22T12:00:29.654Z,33.76
2018-09-22T12:02:59.227Z,32.73
2018-09-22T12:05:28.870Z,32.47
2018-09-22T12:07:58.428Z,32.24
2018-09-22T12:10:27.975Z,32.10
2018-09-22T12:12:57.554Z,31.73
2018-09-22T12:15:27.232Z,31.56
2018-09-22T12:17:56.568Z,31.58
2018-09-22T12:20:25.925Z,31.60
2018-09-22T12:22:55.587Z,31.68
2018-09-22T12:25:25.235Z,31.51
2018-09-22T12:27:54.639Z,31.74
2018-09-22T12:30:23.993Z,31.88
2018-09-22T12:32:53.691Z,31.79
2018-09-22T12:35:23.559Z,31.89
2018-09-22T12:37:53.422Z,31.72
2018-09-22T12:40:22.768Z,31.80
2018-09-22T12:42:52.435Z,31.28
2018-09-22T12:45:22.102Z,31.90
2018-09-22T12:47:51.722Z,31.88
2018-09-22T12:50:21.372Z,31.83
2018-09-22T12:52:50.929Z,31.94
2018-09-22T12:55:20.610Z,31.99
2018-09-22T12:57:50.036Z,32.17
2018-09-22T13:00:19.496Z,32.36
2018-09-22T13:02:49.863Z,32.17
2018-09-22T13:05:19.423Z,31.84
2018-09-22T13:07:49.122Z,31.92
2018-09-22T13:10:18.780Z,31.95
2018-09-22T13:12:48.375Z,31.66
2018-09-22T13:15:18.009Z,31.84
2018-09-22T13:17:47.302Z,31.55
2018-09-22T13:20:16.956Z,31.72
2018-09-22T13:22:46.555Z,31.78
2018-09-22T13:25:16.219Z,31.62
2018-09-22T13:27:45.956Z,31.72
2018-09-22T13:30:15.592Z,31.74
2018-09-22T13:32:45.273Z,31.80
2018-09-22T13:35:14.843Z,31.89
2018-09-22T13:37:44.505Z,31.90
2018-09-22T13:40:14.080Z,31.69
2018-09-22T13:42:43.609Z,31.66
2018-09-22T13:45:13.119Z,31.54
2018-09-22T13:47:42.789Z,31.63
2018-09-22T13:50:12.066Z,31.65
2018-09-22T13:52:41.508Z,31.55
2018-09-22T13:55:11.148Z,31.52
2018-09-22T13:57:40.739Z,31.49
2018-09-22T14:00:10.476Z,31.41
2018-09-22T14:02:39.790Z,31.62
2018-09-22T14:05:09.470Z,31.65
2018-09-22T14:07:39.107Z,31.90
2018-09-22T14:10:08.912Z,31.96
2018-09-22T14:12:38.211Z,31.86
2018-09-22T14:15:07.527Z,31.92
2018-09-22T14:17:36.812Z,31.88
2018-09-22T14:20:06.304Z,31.52
2018-09-22T14:22:35.980Z,31.49
2018-09-22T14:25:05.575Z,31.61
2018-09-22T14:27:34.971Z,31.52
2018-09-22T14:30:04.342Z,31.46
2018-09-22T14:32:33.619Z,31.42
2018-09-22T14:35:03.005Z,31.43
2018-09-22T14:37:32.602Z,31.21
2018-09-22T14:40:02.184Z,31.13
2018-09-22T14:42:31.593Z,31.17
2018-09-22T14:45:00.849Z,31.30
2018-09-22T14:47:30.404Z,31.20
2018-09-22T14:50:00.156Z,31.18
2018-09-22T14:52:29.719Z,31.13
2018-09-22T14:54:59.021Z,30.80
2018-09-22T14:57:28.763Z,30.83
2018-09-22T14:59:58.222Z,30.72
2018-09-22T15:02:27.914Z,30.70
2018-09-22T15:04:57.442Z,30.71
2018-09-22T15:07:27.053Z,30.67
2018-09-22T15:09:56.619Z,30.68
2018-09-22T15:12:26.118Z,30.66
2018-09-22T15:14:55.890Z,30.68
2018-09-22T15:17:25.409Z,30.63
2018-09-22T15:19:54.759Z,30.57
2018-09-22T15:22:24.336Z,30.56
2018-09-22T15:24:54.019Z,30.48
2018-09-22T15:27:23.602Z,30.50
2018-09-22T15:29:53.159Z,30.45
2018-09-22T15:32:22.730Z,30.36
2018-09-22T15:34:51.980Z,30.26
2018-09-22T15:37:22.432Z,30.16
2018-09-22T15:39:51.996Z,30.00
2018-09-22T15:42:21.640Z,29.89
2018-09-22T15:44:51.022Z,29.75
2018-09-22T15:47:20.348Z,29.48
2018-09-22T15:49:49.628Z,29.33
2018-09-22T15:52:19.316Z,29.21
2018-09-22T15:54:48.966Z,28.66
2018-09-22T15:57:18.279Z,28.92
2018-09-22T15:59:47.647Z,28.95
2018-09-22T16:02:17.876Z,28.82
2018-09-22T16:04:47.529Z,28.72
2018-09-22T16:07:18.042Z,28.56
2018-09-22T16:09:47.797Z,28.43
2018-09-22T16:12:18.596Z,28.27
2018-09-22T16:14:49.523Z,28.16
2018-09-22T16:17:19.084Z,27.99
2018-09-22T16:19:48.596Z,27.80
2018-09-22T16:22:18.591Z,27.60
2018-09-22T16:24:48.104Z,27.40
2018-09-22T16:27:17.484Z,27.19
2018-09-22T16:29:46.696Z,26.99
2018-09-22T16:32:15.962Z,26.90
2018-09-22T16:34:45.343Z,26.70
2018-09-22T16:37:15.072Z,26.57
2018-09-22T16:39:44.534Z,26.41
2018-09-22T16:42:13.860Z,26.32
2018-09-22T16:44:43.116Z,26.23
2018-09-22T16:47:12.657Z,26.11
2018-09-22T16:49:41.857Z,25.99
2018-09-22T16:52:12.471Z,25.90
2018-09-22T16:54:42.814Z,25.78
2018-09-22T16:57:12.494Z,25.72
2018-09-22T16:59:42.118Z,25.66
2018-09-22T17:02:11.728Z,25.59
2018-09-22T17:04:41.401Z,25.47
2018-09-22T17:07:11.996Z,25.41
2018-09-22T17:09:41.310Z,25.27
2018-09-22T17:12:10.747Z,25.20
2018-09-22T17:14:40.411Z,25.18
2018-09-22T17:17:09.796Z,25.11
2018-09-22T17:19:39.101Z,25.06
2018-09-22T17:22:08.446Z,24.93
2018-09-22T17:24:37.898Z,24.83
2018-09-22T17:27:07.506Z,24.81
2018-09-22T17:29:37.083Z,24.66
2018-09-22T17:32:07.056Z,24.59
2018-09-22T17:34:36.411Z,24.60
2018-09-22T17:37:05.787Z,24.57
2018-09-22T17:39:35.037Z,24.49
2018-09-22T17:42:04.646Z,24.39
2018-09-22T17:44:34.081Z,24.36
2018-09-22T17:47:03.298Z,24.40
2018-09-22T17:49:32.741Z,24.38
2018-09-22T17:52:02.064Z,24.36
2018-09-22T17:54:31.325Z,24.29
2018-09-22T17:57:01.000Z,24.36
2018-09-22T17:59:31.320Z,24.41
2018-09-22T18:02:01.121Z,24.40
2018-09-22T18:04:30.428Z,24.32
2018-09-22T18:06:59.875Z,24.33
2018-09-22T18:09:29.430Z,24.15
2018-09-22T18:11:58.923Z,24.07
2018-09-22T18:14:28.368Z,24.02
2018-09-22T18:16:57.696Z,23.95
2018-09-22T18:19:26.990Z,23.87
2018-09-22T18:21:56.592Z,23.77
2018-09-22T18:24:25.911Z,23.66
2018-09-22T18:26:55.447Z,23.58
2018-09-22T18:29:24.939Z,23.59
2018-09-22T18:31:54.371Z,23.60
2018-09-22T18:34:23.975Z,23.67
2018-09-22T18:36:53.271Z,23.65
2018-09-22T18:39:22.577Z,23.72
2018-09-22T18:41:51.892Z,23.64
2018-09-22T18:44:21.166Z,23.64
2018-09-22T18:46:50.447Z,23.61
2018-09-22T18:49:19.982Z,23.58
2018-09-22T18:51:49.317Z,23.59
2018-09-22T18:54:18.778Z,23.52
2018-09-22T18:56:48.153Z,23.48
2018-09-22T18:59:17.642Z,23.45
2018-09-22T19:01:47.166Z,23.54
2018-09-22T19:04:16.805Z,23.51
2018-09-22T19:06:46.081Z,23.54
2018-09-22T19:09:15.479Z,23.42
2018-09-22T19:11:44.784Z,23.42
2018-09-22T19:14:22.392Z,23.32
2018-09-22T19:16:55.962Z,23.36
2018-09-22T19:19:31.485Z,23.32
2018-09-22T19:22:04.697Z,23.42
2018-09-22T19:24:53.451Z,23.62
2018-09-22T19:27:27.914Z,23.64
2018-09-22T19:30:02.567Z,23.49
2018-09-22T19:32:36.732Z,23.44
2018-09-22T19:35:12.228Z,23.35
2018-09-22T19:37:44.580Z,23.55
2018-09-22T19:40:17.406Z,23.59
2018-09-22T19:42:51.895Z,23.55
2018-09-22T19:45:28.136Z,23.59
2018-09-22T19:48:04.217Z,23.40
2018-09-22T19:55:36.085Z,23.14
2018-09-22T19:58:05.475Z,23.07
2018-09-22T20:00:34.909Z,23.06
2018-09-22T20:03:04.556Z,23.23
2018-09-22T20:05:34.168Z,23.17
2018-09-22T20:08:03.695Z,22.93
2018-09-22T20:10:33.177Z,22.84
2018-09-22T20:13:02.569Z,22.80
2018-09-22T20:15:32.190Z,22.93
2018-09-22T20:18:01.780Z,22.81
2018-09-22T20:20:31.420Z,22.67
2018-09-22T20:23:00.895Z,22.54
2018-09-22T20:25:30.446Z,22.58
2018-09-22T20:27:59.860Z,22.68
2018-09-22T20:30:29.524Z,22.69
2018-09-22T20:32:59.528Z,22.78
2018-09-22T20:35:29.176Z,22.85
2018-09-22T20:37:58.778Z,22.71
2018-09-22T20:40:28.426Z,22.72
2018-09-22T20:42:57.917Z,22.61
2018-09-22T20:45:27.499Z,22.57
2018-09-22T20:47:56.932Z,22.64
2018-09-22T20:50:26.396Z,22.34
2018-09-22T20:52:55.862Z,22.14
2018-09-22T20:55:25.252Z,22.18
2018-09-22T20:57:55.037Z,22.12
2018-09-22T21:00:24.615Z,22.12
2018-09-22T21:02:54.287Z,21.81
2018-09-22T21:05:23.816Z,21.74
2018-09-22T21:07:53.572Z,21.83
2018-09-22T21:10:23.123Z,21.76
2018-09-22T21:12:52.592Z,21.63
2018-09-22T21:15:22.134Z,21.58
2018-09-22T21:17:51.748Z,21.65
2018-09-22T21:20:21.323Z,21.57
2018-09-22T21:22:50.943Z,21.49
2018-09-22T21:25:20.583Z,21.46
2018-09-22T21:27:50.090Z,21.47
2018-09-22T21:30:19.638Z,21.48
2018-09-22T21:32:49.227Z,21.48
2018-09-22T21:35:18.772Z,21.53
2018-09-22T21:37:48.332Z,21.52
2018-09-22T21:40:17.917Z,21.42
2018-09-22T21:42:47.463Z,21.43
2018-09-22T21:45:16.952Z,21.33
2018-09-22T21:47:46.765Z,21.33
2018-09-22T21:50:16.334Z,21.31
2018-09-22T21:52:45.880Z,21.30
2018-09-22T21:55:15.412Z,21.26
2018-09-22T21:57:44.956Z,21.22
2018-09-22T22:00:14.345Z,21.19
2018-09-22T22:02:44.002Z,21.28
2018-09-22T22:05:13.538Z,21.25
2018-09-22T22:07:43.195Z,21.13
2018-09-22T22:10:12.813Z,21.06
2018-09-22T22:12:42.529Z,21.13
2018-09-22T22:15:12.058Z,21.11
2018-09-22T22:17:41.623Z,21.23
2018-09-22T22:20:11.146Z,21.14
2018-09-22T22:22:40.706Z,21.16
2018-09-22T22:25:11.091Z,21.06
2018-09-22T22:27:40.622Z,21.05
2018-09-22T22:30:11.512Z,20.75
2018-09-22T22:32:40.968Z,20.71
2018-09-22T22:35:10.743Z,20.65
2018-09-22T22:37:40.205Z,20.70
2018-09-22T22:40:09.813Z,20.64
2018-09-22T22:42:39.534Z,20.67
2018-09-22T22:45:09.511Z,20.59
2018-09-22T22:47:38.955Z,20.61
2018-09-22T22:50:08.018Z,20.60
2018-09-22T22:52:37.475Z,20.65
2018-09-22T22:55:07.220Z,20.73
2018-09-22T22:57:36.784Z,20.78
2018-09-22T23:00:07.756Z,20.76
2018-09-22T23:02:37.405Z,20.72
2018-09-22T23:05:07.243Z,20.70
2018-09-22T23:07:36.923Z,20.75
2018-09-22T23:10:06.560Z,20.73
2018-09-22T23:12:36.262Z,20.71
2018-09-22T23:15:06.031Z,20.75
2018-09-22T23:17:36.592Z,20.67
2018-09-22T23:20:06.315Z,20.69
2018-09-22T23:22:36.836Z,20.66
2018-09-22T23:25:06.414Z,20.69
2018-09-22T23:27:36.003Z,20.70
2018-09-22T23:30:05.845Z,20.63
2018-09-22T23:32:35.403Z,20.60
2018-09-22T23:35:04.971Z,20.65
2018-09-22T23:37:34.615Z,20.60
2018-09-22T23:40:04.739Z,20.51
2018-09-22T23:42:34.394Z,20.56
2018-09-22T23:45:04.007Z,20.57
2018-09-22T23:47:33.518Z,20.61
2018-09-22T23:50:02.931Z,20.68
2018-09-22T23:52:33.178Z,20.27
2018-09-22T23:55:02.691Z,20.65
2018-09-22T23:57:32.452Z,20.70
